createdAt,value
2023-05-19T00:00:15.575Z,48.06
2023-05-19T00:02:45.131Z,47.98
2023-05-19T00:05:15.990Z,48.37
2023-05-19T00:07:46.388Z,48.67
2023-05-19T00:10:17.025Z,49.06
2023-05-19T00:12:46.207Z,48.94
2023-05-19T00:15:15.530Z,49.32
2023-05-19T00:17:44.486Z,49.63
2023-05-19T00:20:14.288Z,49.67
2023-05-19T00:22:45.019Z,49.55
2023-05-19T00:25:14.088Z,49.76
2023-05-19T00:27:43.159Z,50.08
2023-05-19T00:30:12.262Z,50.12
2023-05-19T00:32:41.239Z,49.95
2023-05-19T00:35:10.498Z,50.11
2023-05-19T00:37:39.477Z,50.00
2023-05-19T00:40:09.258Z,49.78
2023-05-19T00:42:38.318Z,49.83
2023-05-19T00:45:07.905Z,50.04
2023-05-19T00:47:36.971Z,49.84
2023-05-19T00:50:06.333Z,50.02
2023-05-19T00:52:35.448Z,48.59
2023-05-19T00:55:04.433Z,45.63
2023-05-19T00:57:36.109Z,44.23
2023-05-19T01:00:06.549Z,41.90
2023-05-19T01:02:36.355Z,40.61
2023-05-19T01:05:05.451Z,39.35
2023-05-19T01:07:35.309Z,39.28
2023-05-19T01:10:05.045Z,37.77
2023-05-19T01:12:33.930Z,37.16
2023-05-19T01:15:07.570Z,36.34
2023-05-19T01:17:57.730Z,35.40
2023-05-19T01:20:51.589Z,35.72
2023-05-19T01:23:29.698Z,34.63
2023-05-19T01:26:41.058Z,34.56
2023-05-19T01:29:28.273Z,34.33
2023-05-19T01:32:01.341Z,34.02
2023-05-19T01:34:32.583Z,34.42
2023-05-19T01:37:03.793Z,34.21
2023-05-19T01:39:34.499Z,34.57
2023-05-19T01:42:05.172Z,34.08
2023-05-19T01:44:35.238Z,33.59
2023-05-19T01:47:04.783Z,34.38
2023-05-19T01:49:33.814Z,34.51
2023-05-19T01:52:02.884Z,35.61
2023-05-19T01:54:31.834Z,34.87
2023-05-19T01:57:22.424Z,35.51
2023-05-19T02:00:13.075Z,35.41
2023-05-19T02:02:57.050Z,35.23
2023-05-19T02:05:54.478Z,35.52
2023-05-19T02:08:35.421Z,34.54
2023-05-19T02:11:27.586Z,34.73
2023-05-19T02:13:58.050Z,35.01
2023-05-19T02:16:29.910Z,34.25
2023-05-19T02:19:00.364Z,35.63
2023-05-19T02:21:29.212Z,34.38
2023-05-19T02:23:58.195Z,35.50
2023-05-19T02:26:27.086Z,34.58
2023-05-19T02:28:56.050Z,34.59
2023-05-19T02:31:26.372Z,34.91
2023-05-19T02:33:55.228Z,33.86
2023-05-19T02:36:24.218Z,34.41
2023-05-19T02:38:53.090Z,34.35
2023-05-19T02:41:23.115Z,34.60
2023-05-19T02:43:52.100Z,35.10
2023-05-19T02:46:21.668Z,35.16
2023-05-19T02:48:50.651Z,34.62
2023-05-19T02:51:19.480Z,34.71
2023-05-19T02:53:48.294Z,34.25
2023-05-19T02:56:17.373Z,33.92
2023-05-19T02:58:46.287Z,33.31
2023-05-19T03:01:15.834Z,32.12
2023-05-19T03:03:44.965Z,32.22
2023-05-19T03:06:15.098Z,32.05
2023-05-19T03:08:44.199Z,32.18
2023-05-19T03:11:13.630Z,31.79
2023-05-19T03:13:42.654Z,31.38
2023-05-19T03:16:12.758Z,31.13
2023-05-19T03:18:42.960Z,31.42
2023-05-19T03:21:12.124Z,31.33
2023-05-19T03:23:41.411Z,31.46
2023-05-19T03:26:11.476Z,30.94
2023-05-19T03:28:40.446Z,30.46
2023-05-19T03:31:09.312Z,30.52
2023-05-19T03:33:40.576Z,30.80
2023-05-19T03:36:09.766Z,30.69
2023-05-19T03:38:42.934Z,30.30
2023-05-19T03:41:11.871Z,30.77
2023-05-19T03:43:40.713Z,30.37
2023-05-19T03:46:11.397Z,30.43
2023-05-19T03:48:57.726Z,30.37
2023-05-19T03:51:39.566Z,30.42
2023-05-19T03:54:23.273Z,29.69
2023-05-19T03:56:52.906Z,30.17
2023-05-19T03:59:21.946Z,30.01
2023-05-19T04:01:51.645Z,29.73
2023-05-19T04:04:20.806Z,29.77
2023-05-19T04:06:49.954Z,29.85
2023-05-19T04:09:20.273Z,28.97
2023-05-19T04:11:48.971Z,29.14
2023-05-19T04:14:18.000Z,29.15
2023-05-19T04:16:46.766Z,29.06
2023-05-19T04:19:15.752Z,28.89
2023-05-19T04:21:44.524Z,28.73
2023-05-19T04:24:13.633Z,29.67
2023-05-19T04:26:46.648Z,29.15
2023-05-19T04:29:18.811Z,28.64
2023-05-19T04:31:48.006Z,27.90
2023-05-19T04:34:20.622Z,27.98
2023-05-19T04:36:53.073Z,28.16
2023-05-19T04:39:25.716Z,28.10
2023-05-19T04:41:55.184Z,27.98
2023-05-19T04:44:25.505Z,28.31
2023-05-19T04:46:54.911Z,27.84
2023-05-19T04:49:25.215Z,28.15
2023-05-19T04:51:55.799Z,27.44
2023-05-19T04:54:29.512Z,27.63
2023-05-19T04:56:58.607Z,28.19
2023-05-19T04:59:30.418Z,27.98
2023-05-19T05:01:59.872Z,27.20
2023-05-19T05:04:31.456Z,27.51
2023-05-19T05:07:00.472Z,27.74
2023-05-19T05:09:30.674Z,27.13
2023-05-19T05:12:02.862Z,27.61
2023-05-19T05:14:32.440Z,27.05
2023-05-19T05:17:02.337Z,26.85
2023-05-19T05:19:32.284Z,26.68
2023-05-19T05:22:01.759Z,26.35
2023-05-19T05:24:32.659Z,26.42
2023-05-19T05:27:04.789Z,26.05
2023-05-19T05:29:34.785Z,26.65
2023-05-19T05:32:05.820Z,26.72
2023-05-19T05:34:36.481Z,26.55
2023-05-19T05:37:06.743Z,26.66
2023-05-19T05:39:36.798Z,26.81
2023-05-19T05:42:06.687Z,25.89
2023-05-19T05:44:36.439Z,26.11
2023-05-19T05:47:07.406Z,25.81
2023-05-19T05:49:39.030Z,26.41
2023-05-19T05:52:10.266Z,25.81
2023-05-19T05:54:44.782Z,25.34
2023-05-19T05:57:16.364Z,25.57
2023-05-19T05:59:47.904Z,25.81
2023-05-19T06:02:19.040Z,26.72
2023-05-19T06:04:48.028Z,25.87
2023-05-19T06:07:16.935Z,25.85
2023-05-19T06:09:46.754Z,25.04
2023-05-19T06:12:16.970Z,26.09
2023-05-19T06:14:49.661Z,25.75
2023-05-19T06:17:55.237Z,25.82
2023-05-19T06:20:24.369Z,25.19
2023-05-19T06:22:53.190Z,25.82
2023-05-19T06:25:25.505Z,25.20
2023-05-19T06:27:55.186Z,25.05
2023-05-19T06:30:27.371Z,24.53
2023-05-19T06:33:19.397Z,25.22
2023-05-19T06:35:48.484Z,25.32
2023-05-19T06:38:17.644Z,25.02
2023-05-19T06:40:46.484Z,24.62
2023-05-19T06:43:15.672Z,24.24
2023-05-19T06:45:58.262Z,24.88
2023-05-19T06:48:27.653Z,24.86
2023-05-19T06:50:57.224Z,24.84
2023-05-19T06:53:26.793Z,23.72
2023-05-19T06:56:00.022Z,23.01
2023-05-19T06:58:33.927Z,23.98
2023-05-19T07:01:06.004Z,23.03
2023-05-19T07:03:41.013Z,23.18
2023-05-19T07:06:10.948Z,22.79
2023-05-19T07:08:39.712Z,22.36
2023-05-19T07:11:09.892Z,22.72
2023-05-19T07:13:39.180Z,22.83
2023-05-19T07:16:08.229Z,22.95
2023-05-19T07:18:37.244Z,23.69
2023-05-19T07:21:06.396Z,23.78
2023-05-19T07:23:35.491Z,22.63
2023-05-19T07:26:04.284Z,21.81
2023-05-19T07:28:35.196Z,22.24
2023-05-19T07:31:04.108Z,22.47
2023-05-19T07:33:33.004Z,22.61
2023-05-19T07:36:01.853Z,21.94
2023-05-19T07:38:35.224Z,21.91
2023-05-19T07:41:04.328Z,21.51
2023-05-19T07:43:33.372Z,21.97
2023-05-19T07:46:02.250Z,21.45
2023-05-19T07:48:34.452Z,21.92
2023-05-19T07:51:03.595Z,21.87
2023-05-19T07:53:32.550Z,21.43
2023-05-19T07:56:01.765Z,22.06
2023-05-19T07:58:30.809Z,21.65
2023-05-19T08:01:00.472Z,21.18
2023-05-19T08:03:31.394Z,20.89
2023-05-19T08:06:00.385Z,21.22
2023-05-19T08:08:29.086Z,21.63
2023-05-19T08:10:57.903Z,21.94
2023-05-19T08:13:26.838Z,21.74
2023-05-19T08:16:00.390Z,21.11
2023-05-19T08:18:29.427Z,20.83
2023-05-19T08:20:58.185Z,21.53
2023-05-19T08:23:27.343Z,20.92
2023-05-19T08:25:56.552Z,20.83
2023-05-19T08:28:25.664Z,20.69
2023-05-19T08:30:54.412Z,20.87
2023-05-19T08:33:23.718Z,20.19
2023-05-19T08:35:56.407Z,20.30
2023-05-19T08:38:26.934Z,20.11
2023-05-19T08:40:56.215Z,20.20
2023-05-19T08:43:25.058Z,20.75
2023-05-19T08:45:54.985Z,20.57
2023-05-19T08:48:24.270Z,20.51
2023-05-19T08:51:26.684Z,20.24
2023-05-19T08:54:03.191Z,21.16
2023-05-19T08:56:35.505Z,20.08
2023-05-19T08:59:04.800Z,20.57
2023-05-19T09:01:34.207Z,20.32
2023-05-19T09:04:07.555Z,20.63
2023-05-19T09:06:36.402Z,20.72
2023-05-19T09:09:09.285Z,20.64
2023-05-19T09:11:38.611Z,20.38
2023-05-19T09:14:07.563Z,20.61
2023-05-19T09:16:36.442Z,21.03
2023-05-19T09:19:05.478Z,21.04
2023-05-19T09:21:34.601Z,20.63
2023-05-19T09:24:07.616Z,20.62
2023-05-19T09:26:44.132Z,21.14
2023-05-19T09:29:17.848Z,20.93
2023-05-19T09:32:06.857Z,20.63
2023-05-19T09:34:43.013Z,20.20
2023-05-19T09:37:14.193Z,20.32
2023-05-19T09:39:49.342Z,20.08
2023-05-19T09:42:19.918Z,20.48
2023-05-19T09:44:49.094Z,20.71
2023-05-19T09:47:18.201Z,20.93
2023-05-19T09:49:53.322Z,20.68
2023-05-19T09:52:22.865Z,21.11
2023-05-19T09:54:52.623Z,21.15
2023-05-19T09:57:30.261Z,21.17
2023-05-19T10:00:01.148Z,20.76
2023-05-19T10:02:33.949Z,20.43
2023-05-19T10:05:05.397Z,20.40
2023-05-19T10:07:35.408Z,20.99
2023-05-19T10:10:04.488Z,20.92
2023-05-19T10:12:34.242Z,20.61
2023-05-19T10:15:04.084Z,20.86
2023-05-19T10:17:35.510Z,21.36
2023-05-19T10:20:06.020Z,20.92
2023-05-19T10:22:35.482Z,21.39
2023-05-19T10:25:05.206Z,21.21
2023-05-19T10:27:39.944Z,21.19
2023-05-19T10:30:51.679Z,21.58
2023-05-19T10:33:29.781Z,21.17
2023-05-19T10:36:03.536Z,21.96
2023-05-19T10:39:19.993Z,21.50
2023-05-19T10:42:35.661Z,21.32
2023-05-19T10:45:21.271Z,21.03
2023-05-19T10:47:52.511Z,21.22
2023-05-19T10:50:21.940Z,21.54
2023-05-19T10:52:57.783Z,21.79
2023-05-19T10:55:54.122Z,21.94
2023-05-19T10:58:42.251Z,22.08
2023-05-19T11:01:18.210Z,21.75
2023-05-19T11:03:52.999Z,21.79
2023-05-19T11:06:29.923Z,21.88
2023-05-19T11:09:11.166Z,21.76
2023-05-19T11:11:55.719Z,22.22
2023-05-19T11:14:28.083Z,21.73
2023-05-19T11:17:01.267Z,22.42
2023-05-19T11:19:32.359Z,21.94
2023-05-19T11:22:12.246Z,21.99
2023-05-19T11:24:55.091Z,22.10
2023-05-19T11:27:28.051Z,21.85
2023-05-19T11:30:00.028Z,21.89
2023-05-19T11:32:34.485Z,22.01
2023-05-19T11:35:03.253Z,22.42
2023-05-19T11:37:34.125Z,22.72
2023-05-19T11:40:08.143Z,22.56
2023-05-19T11:42:37.856Z,22.41
2023-05-19T11:45:07.944Z,22.75
2023-05-19T11:47:50.869Z,23.01
2023-05-19T11:50:26.866Z,23.01
2023-05-19T11:52:58.386Z,22.90
2023-05-19T11:55:27.774Z,23.30
2023-05-19T11:58:03.882Z,22.95
2023-05-19T12:00:40.257Z,22.78
2023-05-19T12:03:10.099Z,22.81
2023-05-19T12:05:43.703Z,22.75
2023-05-19T12:08:13.952Z,22.67
2023-05-19T12:10:43.036Z,23.13
2023-05-19T12:13:12.142Z,23.41
2023-05-19T12:15:40.926Z,22.94
2023-05-19T12:18:10.547Z,23.04
2023-05-19T12:20:40.214Z,23.21
2023-05-19T12:23:10.644Z,23.41
2023-05-19T12:25:39.583Z,23.24
2023-05-19T12:28:08.704Z,23.04
2023-05-19T12:30:41.011Z,22.93
2023-05-19T12:33:10.513Z,23.40
2023-05-19T12:35:39.423Z,23.59
2023-05-19T12:38:08.771Z,23.93
2023-05-19T12:40:40.192Z,23.50
2023-05-19T12:43:10.799Z,23.48
2023-05-19T12:45:43.284Z,23.58
2023-05-19T12:48:18.912Z,23.02
2023-05-19T12:50:48.010Z,22.73
2023-05-19T12:53:17.223Z,23.04
2023-05-19T12:55:46.713Z,23.51
2023-05-19T12:58:17.098Z,23.23
2023-05-19T13:00:51.326Z,23.26
2023-05-19T13:03:21.735Z,23.58
2023-05-19T13:05:52.496Z,23.36
2023-05-19T13:08:24.988Z,23.79
2023-05-19T13:10:53.775Z,23.97
2023-05-19T13:13:22.889Z,23.76
2023-05-19T13:15:52.017Z,23.97
2023-05-19T13:18:21.263Z,23.94
2023-05-19T13:20:52.140Z,23.32
2023-05-19T13:23:21.476Z,23.65
2023-05-19T13:25:52.439Z,23.47
2023-05-19T13:28:21.486Z,23.69
2023-05-19T13:30:52.342Z,23.79
2023-05-19T13:33:21.163Z,24.05
2023-05-19T13:35:50.149Z,23.84
2023-05-19T13:38:19.640Z,24.27
2023-05-19T13:40:50.801Z,24.26
2023-05-19T13:43:19.778Z,24.45
2023-05-19T13:45:48.698Z,24.06
2023-05-19T13:48:18.113Z,24.41
2023-05-19T13:50:48.021Z,24.40
2023-05-19T13:53:17.008Z,24.41
2023-05-19T13:55:49.298Z,24.69
2023-05-19T13:58:20.492Z,24.86
2023-05-19T14:00:51.896Z,24.92
2023-05-19T14:03:20.967Z,24.94
2023-05-19T14:05:50.341Z,25.32
2023-05-19T14:08:19.943Z,25.03
2023-05-19T14:10:48.940Z,25.50
2023-05-19T14:13:32.025Z,24.88
2023-05-19T14:16:03.310Z,25.52
2023-05-19T14:18:33.337Z,25.39
2023-05-19T14:21:02.394Z,25.81
2023-05-19T14:23:32.021Z,25.79
2023-05-19T14:26:01.128Z,26.18
2023-05-19T14:28:35.256Z,26.42
2023-05-19T14:31:04.466Z,26.54
2023-05-19T14:33:35.631Z,26.86
2023-05-19T14:36:06.017Z,26.97
2023-05-19T14:38:35.343Z,27.08
2023-05-19T14:41:04.557Z,27.00
2023-05-19T14:43:34.416Z,27.45
2023-05-19T14:46:03.279Z,27.88
2023-05-19T14:48:32.925Z,27.98
2023-05-19T14:51:02.141Z,28.43
2023-05-19T14:53:31.117Z,28.62
2023-05-19T14:56:00.195Z,28.99
2023-05-19T14:58:29.499Z,29.09
2023-05-19T15:00:59.991Z,29.26
2023-05-19T15:03:29.153Z,29.57
2023-05-19T15:05:58.080Z,30.19
2023-05-19T15:08:27.498Z,30.44
2023-05-19T15:10:56.481Z,30.51
2023-05-19T15:13:26.961Z,31.58
2023-05-19T15:16:08.242Z,32.25
2023-05-19T15:18:45.398Z,31.89
2023-05-19T15:21:14.299Z,32.27
2023-05-19T15:23:43.756Z,33.37
2023-05-19T15:26:13.662Z,33.49
2023-05-19T15:28:42.930Z,34.17
2023-05-19T15:31:11.987Z,33.93
2023-05-19T15:33:41.160Z,34.12
2023-05-19T15:36:10.278Z,33.93
2023-05-19T15:38:39.184Z,34.72
2023-05-19T15:41:09.396Z,35.24
2023-05-19T15:43:38.561Z,35.56
2023-05-19T15:46:07.682Z,35.45
2023-05-19T15:48:36.492Z,35.73
2023-05-19T15:51:05.642Z,36.12
2023-05-19T15:53:34.918Z,37.31
2023-05-19T15:56:04.838Z,37.12
2023-05-19T15:58:33.785Z,37.47
2023-05-19T16:01:02.999Z,37.31
2023-05-19T16:03:31.929Z,37.81
2023-05-19T16:06:03.784Z,37.24
2023-05-19T16:08:32.862Z,38.13
2023-05-19T16:11:01.932Z,38.45
2023-05-19T16:13:31.666Z,37.51
2023-05-19T16:16:01.034Z,38.48
2023-05-19T16:18:33.029Z,38.63
2023-05-19T16:21:01.760Z,38.75
2023-05-19T16:23:30.954Z,39.70
2023-05-19T16:26:02.019Z,39.96
2023-05-19T16:28:31.163Z,39.43
2023-05-19T16:31:01.301Z,39.61
2023-05-19T16:33:30.964Z,40.32
2023-05-19T16:36:03.005Z,39.54
2023-05-19T16:38:32.064Z,40.59
2023-05-19T16:41:00.844Z,39.97
2023-05-19T16:43:29.951Z,40.62
2023-05-19T16:45:58.739Z,40.65
2023-05-19T16:48:27.544Z,40.57
2023-05-19T16:50:56.384Z,40.88
2023-05-19T16:53:25.567Z,41.21
2023-05-19T16:55:55.281Z,40.91
2023-05-19T16:58:24.621Z,40.00
2023-05-19T17:00:54.008Z,41.48
2023-05-19T17:03:26.291Z,41.65
2023-05-19T17:05:55.454Z,41.99
2023-05-19T17:08:24.362Z,41.88
2023-05-19T17:10:53.229Z,41.27
2023-05-19T17:13:22.237Z,42.06
2023-05-19T17:15:53.705Z,42.37
2023-05-19T17:18:23.556Z,42.07
2023-05-19T17:20:52.261Z,43.04
2023-05-19T17:23:22.388Z,42.52
2023-05-19T17:25:56.397Z,42.33
2023-05-19T17:28:25.360Z,42.17
2023-05-19T17:30:54.513Z,42.59
2023-05-19T17:33:23.671Z,42.94
2023-05-19T17:35:55.574Z,43.04
2023-05-19T17:38:24.807Z,43.80
2023-05-19T17:40:54.779Z,43.77
2023-05-19T17:43:23.809Z,42.62
2023-05-19T17:45:55.362Z,43.04
2023-05-19T17:48:24.770Z,43.90
2023-05-19T17:50:53.861Z,43.72
2023-05-19T17:53:22.952Z,43.70
2023-05-19T17:55:59.184Z,44.17
2023-05-19T17:58:29.116Z,44.42
2023-05-19T18:00:58.228Z,44.85
2023-05-19T18:03:27.489Z,44.84
2023-05-19T18:05:56.852Z,44.43
2023-05-19T18:08:26.572Z,44.36
2023-05-19T18:10:56.811Z,45.05
2023-05-19T18:13:26.954Z,45.11
2023-05-19T18:15:56.000Z,44.45
2023-05-19T18:18:25.132Z,44.21
2023-05-19T18:20:55.651Z,44.38
2023-05-19T18:23:24.622Z,45.10
2023-05-19T18:25:53.897Z,45.07
2023-05-19T18:28:23.881Z,45.33
2023-05-19T18:31:06.013Z,45.51
2023-05-19T18:33:34.945Z,44.95
2023-05-19T18:36:03.932Z,45.35
2023-05-19T18:38:33.552Z,45.29
2023-05-19T18:41:02.539Z,45.83
2023-05-19T18:43:33.056Z,45.62
2023-05-19T18:46:02.029Z,45.38
2023-05-19T18:48:31.056Z,45.84
2023-05-19T18:51:00.730Z,45.71
2023-05-19T18:53:29.589Z,46.18
2023-05-19T18:55:58.374Z,46.23
2023-05-19T18:58:27.692Z,45.82
2023-05-19T19:00:57.207Z,46.61
2023-05-19T19:03:26.321Z,45.69
2023-05-19T19:05:59.756Z,46.66
2023-05-19T19:08:32.264Z,46.61
2023-05-19T19:11:02.122Z,46.58
2023-05-19T19:13:31.610Z,46.48
2023-05-19T19:16:05.931Z,47.18
2023-05-19T19:18:36.700Z,46.65
2023-05-19T19:21:06.319Z,46.74
2023-05-19T19:23:36.371Z,46.81
2023-05-19T19:26:05.456Z,47.76
2023-05-19T19:28:34.371Z,47.76
2023-05-19T19:31:03.299Z,47.45
2023-05-19T19:33:32.213Z,47.58
2023-05-19T19:36:02.031Z,48.14
2023-05-19T19:38:31.014Z,47.37
2023-05-19T19:40:59.833Z,48.19
2023-05-19T19:43:28.681Z,48.32
2023-05-19T19:46:05.201Z,47.33
2023-05-19T19:48:34.154Z,48.20
2023-05-19T19:51:03.018Z,47.89
2023-05-19T19:53:34.288Z,48.20
2023-05-19T19:56:05.226Z,48.23
2023-05-19T19:58:34.098Z,48.50
2023-05-19T20:01:06.942Z,48.64
2023-05-19T20:03:36.850Z,48.89
2023-05-19T20:06:08.599Z,49.04
2023-05-19T20:08:37.638Z,48.84
2023-05-19T20:11:07.424Z,49.21
2023-05-19T20:13:36.478Z,49.17
2023-05-19T20:16:05.334Z,49.03
2023-05-19T20:18:34.594Z,50.15
2023-05-19T20:21:03.225Z,49.42
2023-05-19T20:23:32.612Z,50.03
2023-05-19T20:28:38.937Z,50.37
2023-05-19T20:31:10.422Z,50.66
2023-05-19T20:33:39.601Z,50.51
2023-05-19T20:36:08.850Z,50.44
2023-05-19T20:38:37.721Z,51.09
2023-05-19T20:41:06.432Z,51.39
2023-05-19T20:43:35.632Z,51.47
2023-05-19T20:46:05.216Z,51.61
2023-05-19T20:48:36.280Z,51.68
2023-05-19T20:51:05.359Z,51.43
2023-05-19T20:53:34.378Z,52.24
2023-05-19T20:56:03.320Z,52.19
2023-05-19T20:58:32.337Z,52.31
2023-05-19T21:01:01.270Z,52.21
2023-05-19T21:03:31.431Z,52.54
2023-05-19T21:06:01.459Z,52.52
2023-05-19T21:08:30.551Z,52.88
2023-05-19T21:11:00.171Z,52.80
2023-05-19T21:13:29.232Z,52.49
2023-05-19T21:15:58.052Z,52.60
2023-05-19T21:18:26.937Z,53.04
2023-05-19T21:20:55.927Z,52.97
2023-05-19T21:23:24.915Z,53.34
2023-05-19T21:25:53.944Z,53.17
2023-05-19T21:28:22.803Z,53.52
2023-05-19T21:30:51.755Z,53.29
2023-05-19T21:33:20.600Z,53.58
2023-05-19T21:35:49.571Z,53.81
2023-05-19T21:38:23.798Z,53.90
2023-05-19T21:40:53.974Z,53.90
2023-05-19T21:43:23.100Z,53.99
2023-05-19T21:45:51.977Z,53.59
2023-05-19T21:48:20.924Z,53.76
2023-05-19T21:50:56.721Z,53.78
2023-05-19T21:53:26.428Z,54.38
2023-05-19T21:55:55.467Z,53.99
2023-05-19T21:58:24.970Z,53.99
2023-05-19T22:00:57.670Z,54.20
2023-05-19T22:03:27.074Z,54.30
2023-05-19T22:05:56.653Z,54.40
2023-05-19T22:08:26.788Z,54.67
2023-05-19T22:10:55.951Z,54.40
2023-05-19T22:13:24.551Z,54.35
2023-05-19T22:15:53.741Z,54.84
2023-05-19T22:18:22.893Z,54.85
2023-05-19T22:20:51.714Z,54.95
2023-05-19T22:23:20.623Z,55.41
2023-05-19T22:25:49.564Z,55.48
2023-05-19T22:28:18.401Z,55.57
2023-05-19T22:30:47.429Z,55.58
2023-05-19T22:33:16.348Z,55.59
2023-05-19T22:35:45.467Z,55.83
2023-05-19T22:38:14.376Z,56.16
2023-05-19T22:40:43.328Z,56.29
2023-05-19T22:43:12.293Z,56.48
2023-05-19T22:45:41.325Z,56.36
2023-05-19T22:48:10.132Z,56.40
2023-05-19T22:50:39.135Z,56.90
2023-05-19T22:53:08.032Z,56.71
2023-05-19T22:55:37.053Z,56.96
2023-05-19T22:58:07.127Z,56.89
2023-05-19T23:00:36.029Z,57.22
2023-05-19T23:03:05.149Z,57.33
2023-05-19T23:05:34.039Z,57.44
2023-05-19T23:08:03.166Z,57.48
2023-05-19T23:10:32.192Z,57.59
2023-05-19T23:13:01.037Z,57.48
2023-05-19T23:15:29.866Z,56.91
2023-05-19T23:17:58.882Z,56.76
2023-05-19T23:20:27.850Z,55.84
2023-05-19T23:22:56.853Z,55.28
2023-05-19T23:25:25.759Z,53.19
2023-05-19T23:27:54.531Z,52.84
2023-05-19T23:30:23.512Z,51.86
2023-05-19T23:32:53.788Z,50.61
2023-05-19T23:35:23.295Z,49.87
2023-05-19T23:37:52.071Z,49.11
2023-05-19T23:40:20.951Z,48.42
2023-05-19T23:42:49.859Z,47.64
2023-05-19T23:45:18.861Z,46.93
2023-05-19T23:47:47.692Z,46.65
2023-05-19T23:50:16.714Z,45.40
2023-05-19T23:52:45.796Z,44.43
2023-05-19T23:55:15.817Z,45.40
2023-05-19T23:57:44.779Z,46.62
